createdAt,value
2017-12-20T00:00:59.678Z,34.10
2017-12-20T00:01:59.659Z,35.50
2017-12-20T00:02:59.639Z,33.30
2017-12-20T00:03:59.723Z,36.10
2017-12-20T00:04:59.599Z,36.70
2017-12-20T00:05:59.639Z,36.40
2017-12-20T00:06:59.560Z,38.10
2017-12-20T00:07:59.609Z,37.50
2017-12-20T00:08:59.519Z,38.30
2017-12-20T00:09:59.544Z,37.00
2017-12-20T00:10:59.478Z,38.30
2017-12-20T00:11:59.555Z,40.40
2017-12-20T00:12:59.436Z,37.70
2017-12-20T00:13:59.427Z,39.40
2017-12-20T00:14:59.399Z,38.50
2017-12-20T00:15:59.380Z,40.70
2017-12-20T00:16:59.359Z,38.60
2017-12-20T00:17:59.335Z,41.70
2017-12-20T00:18:59.325Z,34.80
2017-12-20T00:19:59.305Z,34.90
2017-12-20T00:20:59.282Z,39.50
2017-12-20T00:21:59.264Z,37.30
2017-12-20T00:22:59.238Z,39.70
2017-12-20T00:23:59.216Z,35.90
2017-12-20T00:24:59.190Z,38.60
2017-12-20T00:25:59.178Z,37.60
2017-12-20T00:26:59.152Z,37.00
2017-12-20T00:27:59.136Z,38.20
2017-12-20T00:28:59.112Z,40.90
2017-12-20T00:29:59.094Z,41.40
2017-12-20T00:30:59.091Z,38.60
2017-12-20T00:31:59.057Z,41.50
2017-12-20T00:32:59.038Z,40.00
2017-12-20T00:33:59.019Z,43.60
2017-12-20T00:34:58.991Z,39.60
2017-12-20T00:35:58.971Z,40.80
2017-12-20T00:36:58.950Z,43.10
2017-12-20T00:37:58.933Z,43.80
2017-12-20T00:38:58.913Z,42.80
2017-12-20T00:39:58.908Z,45.90
2017-12-20T00:40:58.877Z,41.40
2017-12-20T00:41:58.855Z,43.30
2017-12-20T00:42:58.839Z,48.10
2017-12-20T00:43:58.817Z,45.60
2017-12-20T00:44:58.800Z,43.70
2017-12-20T00:45:58.778Z,46.20
2017-12-20T00:46:58.761Z,46.30
2017-12-20T00:47:58.740Z,40.30
2017-12-20T00:48:58.714Z,48.40
2017-12-20T00:49:58.699Z,49.80
2017-12-20T00:50:58.678Z,50.70
2017-12-20T00:51:58.657Z,45.50
2017-12-20T00:52:58.632Z,52.90
2017-12-20T00:53:58.618Z,50.10
2017-12-20T00:54:58.588Z,48.30
2017-12-20T00:55:58.581Z,45.40
2017-12-20T00:56:58.550Z,44.30
2017-12-20T00:57:58.535Z,48.70
2017-12-20T00:58:58.508Z,46.10
2017-12-20T00:59:58.491Z,47.10
2017-12-20T01:00:58.468Z,43.40
2017-12-20T01:01:58.548Z,42.20
2017-12-20T01:02:58.432Z,46.40
2017-12-20T01:03:58.410Z,46.00
2017-12-20T01:04:58.388Z,43.50
2017-12-20T01:05:58.426Z,45.30
2017-12-20T01:06:58.349Z,45.50
2017-12-20T01:07:58.335Z,45.10
2017-12-20T01:08:58.308Z,49.60
2017-12-20T01:09:58.296Z,48.90
2017-12-20T01:10:58.275Z,43.90
2017-12-20T01:11:58.260Z,49.20
2017-12-20T01:12:58.230Z,45.30
2017-12-20T01:13:58.300Z,49.80
2017-12-20T01:14:58.188Z,48.20
2017-12-20T01:15:58.168Z,54.20
2017-12-20T01:16:58.145Z,46.80
2017-12-20T01:17:58.139Z,50.10
2017-12-20T01:18:58.113Z,50.70
2017-12-20T01:19:58.094Z,54.60
2017-12-20T01:20:58.070Z,46.70
2017-12-20T01:21:58.087Z,49.80
2017-12-20T01:22:58.034Z,50.70
2017-12-20T01:23:58.208Z,49.20
2017-12-20T01:24:57.986Z,50.90
2017-12-20T01:25:58.081Z,50.40
2017-12-20T01:26:57.948Z,55.00
2017-12-20T01:27:57.929Z,55.50
2017-12-20T01:28:57.906Z,54.20
2017-12-20T01:29:57.889Z,51.10
2017-12-20T01:30:57.877Z,47.40
2017-12-20T01:31:57.845Z,47.60
2017-12-20T01:32:57.834Z,53.20
2017-12-20T01:33:57.810Z,47.10
2017-12-20T01:34:57.795Z,53.80
2017-12-20T01:35:57.768Z,47.10
2017-12-20T01:36:57.748Z,50.40
2017-12-20T01:37:57.728Z,54.70
2017-12-20T01:38:57.710Z,53.70
2017-12-20T01:39:57.694Z,54.40
2017-12-20T01:40:57.669Z,55.20
2017-12-20T01:41:57.648Z,53.60
2017-12-20T01:42:57.632Z,49.30
2017-12-20T01:43:57.621Z,55.20
2017-12-20T01:44:57.583Z,53.80
2017-12-20T01:45:57.570Z,57.20
2017-12-20T01:46:57.544Z,53.80
2017-12-20T01:47:57.523Z,52.00
2017-12-20T01:48:57.500Z,54.50
2017-12-20T01:49:57.484Z,55.70
2017-12-20T01:50:57.471Z,57.70
2017-12-20T01:51:57.455Z,58.60
2017-12-20T01:52:57.421Z,54.70
2017-12-20T01:53:57.399Z,53.80
2017-12-20T01:54:57.382Z,57.20
2017-12-20T01:55:57.362Z,52.40
2017-12-20T01:56:57.341Z,60.80
2017-12-20T01:57:57.319Z,54.20
2017-12-20T01:58:57.297Z,57.50
2017-12-20T01:59:57.278Z,57.90
2017-12-20T02:00:57.258Z,60.80
2017-12-20T02:01:57.238Z,56.70
2017-12-20T02:02:57.218Z,62.40
2017-12-20T02:03:57.205Z,63.30
2017-12-20T02:04:57.189Z,65.30
2017-12-20T02:05:57.159Z,65.20
2017-12-20T02:06:57.136Z,62.60
2017-12-20T02:07:57.118Z,60.80
2017-12-20T02:08:57.103Z,60.40
2017-12-20T02:09:57.079Z,64.60
2017-12-20T02:10:57.060Z,60.40
2017-12-20T02:11:57.040Z,64.60
2017-12-20T02:12:57.020Z,57.60
2017-12-20T02:13:57.000Z,62.30
2017-12-20T02:14:56.978Z,57.20
2017-12-20T02:15:56.963Z,61.10
2017-12-20T02:16:56.940Z,69.60
2017-12-20T02:17:56.916Z,61.70
2017-12-20T02:18:56.895Z,60.10
2017-12-20T02:19:56.872Z,61.20
2017-12-20T02:20:56.860Z,58.20
2017-12-20T02:21:56.833Z,55.10
2017-12-20T02:22:56.822Z,61.40
2017-12-20T02:23:56.794Z,63.40
2017-12-20T02:24:56.778Z,59.90
2017-12-20T02:25:56.757Z,59.60
2017-12-20T02:26:56.738Z,59.90
2017-12-20T02:27:56.711Z,65.80
2017-12-20T02:28:56.695Z,62.70
2017-12-20T02:29:56.678Z,60.30
2017-12-20T02:30:56.658Z,63.20
2017-12-20T02:31:56.639Z,64.00
2017-12-20T02:32:56.618Z,72.10
2017-12-20T02:33:56.598Z,67.80
2017-12-20T02:34:56.581Z,65.70
2017-12-20T02:35:56.552Z,58.90
2017-12-20T02:36:56.536Z,67.70
2017-12-20T02:37:56.516Z,63.20
2017-12-20T02:38:56.502Z,64.40
2017-12-20T02:39:56.475Z,62.80
2017-12-20T02:40:56.451Z,64.40
2017-12-20T02:41:56.436Z,68.40
2017-12-20T02:42:56.424Z,65.00
2017-12-20T02:43:56.392Z,67.50
2017-12-20T02:44:56.376Z,65.60
2017-12-20T02:45:56.354Z,59.40
2017-12-20T02:46:56.334Z,65.80
2017-12-20T02:47:56.313Z,69.80
2017-12-20T02:48:56.290Z,64.30
2017-12-20T02:49:56.276Z,61.90
2017-12-20T02:50:56.254Z,70.20
2017-12-20T02:51:56.228Z,62.10
2017-12-20T02:52:56.209Z,57.60
2017-12-20T02:53:56.189Z,64.50
2017-12-20T02:54:56.170Z,63.10
2017-12-20T02:55:56.149Z,65.50
2017-12-20T02:56:56.135Z,66.10
2017-12-20T02:57:56.109Z,67.40
2017-12-20T02:58:56.092Z,63.00
2017-12-20T02:59:56.069Z,66.70
2017-12-20T03:00:56.047Z,66.70
2017-12-20T03:01:56.028Z,63.30
2017-12-20T03:02:56.009Z,66.60
2017-12-20T03:03:55.988Z,62.90
2017-12-20T03:04:55.968Z,70.80
2017-12-20T03:05:55.948Z,72.80
2017-12-20T03:06:55.930Z,66.40
2017-12-20T03:07:55.907Z,69.00
2017-12-20T03:08:55.889Z,65.50
2017-12-20T03:09:55.871Z,65.40
2017-12-20T03:10:55.845Z,69.40
2017-12-20T03:11:55.828Z,69.80
2017-12-20T03:12:55.809Z,69.40
2017-12-20T03:13:55.788Z,69.80
2017-12-20T03:14:55.769Z,74.90
2017-12-20T03:15:55.744Z,82.70
2017-12-20T03:16:55.720Z,73.40
2017-12-20T03:17:55.710Z,69.60
2017-12-20T03:18:55.684Z,72.00
2017-12-20T03:19:55.658Z,79.40
2017-12-20T03:20:55.637Z,80.30
2017-12-20T03:21:55.622Z,69.80
2017-12-20T03:22:55.605Z,75.00
2017-12-20T03:23:55.578Z,84.30
2017-12-20T03:24:55.564Z,78.30
2017-12-20T03:25:55.539Z,77.50
2017-12-20T03:26:55.518Z,81.30
2017-12-20T03:27:55.499Z,77.50
2017-12-20T03:28:55.478Z,87.20
2017-12-20T03:29:55.456Z,83.10
2017-12-20T03:30:55.441Z,82.30
2017-12-20T03:31:55.424Z,78.10
2017-12-20T03:32:55.401Z,80.50
2017-12-20T03:33:55.379Z,82.70
2017-12-20T03:34:55.361Z,85.20
2017-12-20T03:35:55.338Z,77.90
2017-12-20T03:36:55.318Z,82.20
2017-12-20T03:37:55.299Z,79.10
2017-12-20T03:38:55.277Z,84.30
2017-12-20T03:39:55.281Z,86.60
2017-12-20T03:40:55.236Z,84.60
2017-12-20T03:41:55.220Z,83.00
2017-12-20T03:42:55.197Z,82.80
2017-12-20T03:43:55.175Z,81.40
2017-12-20T03:44:55.159Z,81.50
2017-12-20T03:45:55.146Z,78.40
2017-12-20T03:46:55.118Z,84.00
2017-12-20T03:47:55.095Z,90.80
2017-12-20T03:48:55.084Z,90.40
2017-12-20T03:49:55.053Z,83.90
2017-12-20T03:50:55.046Z,85.30
2017-12-20T03:51:55.012Z,89.60
2017-12-20T03:52:54.992Z,91.20
2017-12-20T03:53:54.974Z,89.40
2017-12-20T03:54:54.951Z,91.50
2017-12-20T03:55:54.940Z,86.30
2017-12-20T03:56:54.908Z,86.30
2017-12-20T03:57:54.888Z,84.20
2017-12-20T03:58:54.867Z,94.70
2017-12-20T03:59:54.849Z,92.50
2017-12-20T04:00:54.833Z,90.30
2017-12-20T04:01:54.809Z,92.40
2017-12-20T04:02:54.786Z,97.40
2017-12-20T04:03:54.768Z,90.90
2017-12-20T04:04:54.747Z,94.70
2017-12-20T04:05:54.729Z,95.10
2017-12-20T04:06:54.708Z,94.30
2017-12-20T04:07:54.690Z,95.60
2017-12-20T04:08:54.669Z,94.20
2017-12-20T04:09:54.648Z,97.60
2017-12-20T04:10:54.631Z,88.90
2017-12-20T04:11:54.607Z,96.00
2017-12-20T04:12:54.589Z,94.10
2017-12-20T04:13:54.568Z,86.30
2017-12-20T04:14:54.549Z,94.80
2017-12-20T04:15:54.531Z,95.70
2017-12-20T04:16:54.505Z,95.00
2017-12-20T04:17:54.492Z,101.50
2017-12-20T04:18:54.466Z,98.50
2017-12-20T04:19:54.446Z,105.40
2017-12-20T04:20:54.459Z,99.00
2017-12-20T04:21:54.409Z,91.20
2017-12-20T04:22:54.428Z,97.20
2017-12-20T04:23:54.366Z,96.20
2017-12-20T04:24:54.342Z,100.60
2017-12-20T04:25:54.324Z,90.60
2017-12-20T04:26:54.306Z,88.10
2017-12-20T04:27:54.288Z,89.30
2017-12-20T04:28:54.261Z,87.40
2017-12-20T04:29:54.250Z,99.10
2017-12-20T04:30:54.227Z,95.20
2017-12-20T04:31:54.210Z,91.80
2017-12-20T04:32:54.189Z,93.00
2017-12-20T04:33:54.162Z,95.00
2017-12-20T04:34:54.140Z,87.60
2017-12-20T04:35:54.118Z,87.80
2017-12-20T04:36:54.102Z,87.10
2017-12-20T04:37:54.088Z,92.90
2017-12-20T04:38:54.067Z,93.00
2017-12-20T04:39:54.041Z,88.20
2017-12-20T04:40:54.030Z,91.00
2017-12-20T04:41:54.007Z,88.80
2017-12-20T04:42:53.979Z,90.60
2017-12-20T04:43:53.969Z,83.00
2017-12-20T04:44:53.938Z,86.10
2017-12-20T04:45:53.919Z,80.20
2017-12-20T04:46:53.899Z,85.90
2017-12-20T04:47:53.877Z,89.20
2017-12-20T04:48:53.864Z,97.40
2017-12-20T04:49:53.838Z,91.50
2017-12-20T04:50:53.818Z,89.70
2017-12-20T04:51:53.800Z,87.50
2017-12-20T04:52:53.780Z,85.20
2017-12-20T04:53:53.760Z,86.50
2017-12-20T04:54:53.739Z,79.20
2017-12-20T04:55:53.723Z,83.90
2017-12-20T04:56:53.698Z,77.30
2017-12-20T04:57:53.678Z,87.20
2017-12-20T04:58:53.657Z,77.50
2017-12-20T04:59:53.638Z,81.20
2017-12-20T05:00:53.618Z,80.50
2017-12-20T05:01:53.598Z,81.00
2017-12-20T05:02:53.578Z,86.70
2017-12-20T05:03:53.561Z,87.60
2017-12-20T05:04:53.539Z,80.80
2017-12-20T05:05:53.520Z,78.30
2017-12-20T05:06:53.495Z,83.20
2017-12-20T05:07:53.478Z,72.60
2017-12-20T05:08:53.458Z,75.60
2017-12-20T05:09:53.434Z,84.00
2017-12-20T05:10:53.421Z,76.40
2017-12-20T05:11:53.398Z,74.30
2017-12-20T05:12:53.376Z,83.80
2017-12-20T05:13:53.359Z,74.20
2017-12-20T05:14:53.339Z,84.70
2017-12-20T05:15:53.314Z,77.30
2017-12-20T05:16:53.296Z,75.80
2017-12-20T05:17:53.278Z,80.00
2017-12-20T05:18:53.258Z,77.50
2017-12-20T05:19:53.237Z,83.50
2017-12-20T05:20:53.218Z,81.60
2017-12-20T05:21:53.191Z,82.80
2017-12-20T05:22:53.172Z,84.80
2017-12-20T05:23:53.156Z,87.10
2017-12-20T05:24:53.131Z,85.50
2017-12-20T05:25:53.115Z,76.60
2017-12-20T05:26:53.092Z,84.40
2017-12-20T05:27:53.079Z,76.70
2017-12-20T05:28:53.055Z,78.60
2017-12-20T05:29:53.039Z,77.30
2017-12-20T05:30:53.018Z,83.30
2017-12-20T05:31:52.997Z,75.80
2017-12-20T05:32:52.978Z,74.70
2017-12-20T05:33:52.958Z,75.90
2017-12-20T05:34:52.935Z,84.10
2017-12-20T05:35:52.917Z,75.90
2017-12-20T05:36:52.890Z,83.90
2017-12-20T05:37:52.873Z,76.20
2017-12-20T05:38:52.858Z,79.70
2017-12-20T05:39:52.829Z,80.30
2017-12-20T05:40:52.810Z,79.00
2017-12-20T05:41:52.791Z,79.40
2017-12-20T05:42:52.770Z,81.70
2017-12-20T05:43:52.793Z,77.10
2017-12-20T05:44:52.730Z,77.60
2017-12-20T05:45:52.710Z,71.30
2017-12-20T05:46:52.700Z,74.40
2017-12-20T05:47:52.672Z,79.80
2017-12-20T05:48:52.651Z,70.10
2017-12-20T05:49:52.637Z,73.10
2017-12-20T05:50:52.612Z,73.60
2017-12-20T05:51:52.602Z,71.90
2017-12-20T05:52:52.590Z,70.20
2017-12-20T05:53:52.553Z,74.10
2017-12-20T05:54:52.586Z,67.60
2017-12-20T05:55:52.542Z,72.70
2017-12-20T05:56:52.500Z,73.60
2017-12-20T05:57:52.473Z,73.20
2017-12-20T05:58:52.449Z,64.00
2017-12-20T05:59:52.430Z,70.20
2017-12-20T06:00:52.410Z,74.70
2017-12-20T06:01:52.399Z,70.10
2017-12-20T06:02:52.368Z,71.40
2017-12-20T06:03:52.349Z,66.60
2017-12-20T06:04:52.329Z,67.40
2017-12-20T06:05:52.309Z,65.30
2017-12-20T06:06:52.289Z,70.20
2017-12-20T06:07:52.269Z,66.60
2017-12-20T06:08:52.253Z,66.40
2017-12-20T06:09:52.233Z,64.20
2017-12-20T06:10:52.209Z,67.60
2017-12-20T06:11:52.188Z,66.20
2017-12-20T06:12:52.169Z,69.20
2017-12-20T06:13:52.153Z,70.70
2017-12-20T06:14:52.139Z,62.60
2017-12-20T06:15:52.109Z,64.40
2017-12-20T06:16:52.089Z,64.90
2017-12-20T06:17:52.078Z,68.30
2017-12-20T06:18:52.051Z,68.60
2017-12-20T06:19:52.030Z,64.30
2017-12-20T06:20:52.008Z,79.50
2017-12-20T06:21:51.988Z,68.70
2017-12-20T06:22:51.973Z,68.20
2017-12-20T06:23:51.957Z,69.70
2017-12-20T06:24:51.934Z,67.60
2017-12-20T06:25:51.915Z,68.90
2017-12-20T06:26:51.941Z,62.70
2017-12-20T06:27:51.876Z,76.10
2017-12-20T06:28:51.851Z,68.50
2017-12-20T06:29:51.831Z,68.00
2017-12-20T06:30:51.868Z,69.30
2017-12-20T06:31:51.802Z,67.60
2017-12-20T06:32:51.870Z,66.50
2017-12-20T06:33:51.769Z,68.50
2017-12-20T06:34:51.790Z,71.90
2017-12-20T06:35:51.713Z,73.40
2017-12-20T06:36:51.704Z,72.20
2017-12-20T06:37:51.677Z,71.60
2017-12-20T06:38:51.657Z,74.40
2017-12-20T06:39:51.639Z,72.90
2017-12-20T06:40:51.622Z,68.50
2017-12-20T06:41:51.595Z,74.20
2017-12-20T06:42:51.629Z,70.10
2017-12-20T06:43:51.555Z,72.80
2017-12-20T06:44:51.540Z,72.60
2017-12-20T06:45:51.514Z,72.00
2017-12-20T06:46:51.499Z,73.70
2017-12-20T06:47:51.479Z,74.40
2017-12-20T06:48:51.453Z,76.10
2017-12-20T06:49:51.440Z,73.30
2017-12-20T06:50:51.418Z,75.30
2017-12-20T06:51:51.400Z,82.30
2017-12-20T06:52:51.374Z,72.70
2017-12-20T06:53:51.357Z,69.40
2017-12-20T06:54:51.335Z,73.30
2017-12-20T06:55:51.316Z,75.90
2017-12-20T06:56:51.296Z,77.70
2017-12-20T06:57:51.274Z,72.80
2017-12-20T06:58:51.254Z,72.70
2017-12-20T06:59:51.238Z,76.70
2017-12-20T07:00:51.223Z,73.70
2017-12-20T07:01:51.199Z,73.00
2017-12-20T07:02:51.178Z,77.00
2017-12-20T07:03:51.163Z,71.10
2017-12-20T07:04:51.135Z,74.40
2017-12-20T07:05:51.119Z,77.90
2017-12-20T07:06:51.098Z,89.80
2017-12-20T07:07:51.074Z,75.10
2017-12-20T07:08:51.058Z,75.60
2017-12-20T07:09:51.038Z,72.20
2017-12-20T07:10:51.019Z,70.60
2017-12-20T07:11:50.996Z,76.20
2017-12-20T07:12:50.979Z,75.50
2017-12-20T07:13:51.057Z,73.60
2017-12-20T07:14:50.943Z,72.90
2017-12-20T07:15:50.918Z,77.70
2017-12-20T07:16:50.906Z,78.90
2017-12-20T07:17:50.875Z,76.70
2017-12-20T07:18:50.858Z,76.80
2017-12-20T07:19:50.846Z,74.90
2017-12-20T07:20:50.818Z,72.80
2017-12-20T07:21:50.798Z,74.60
2017-12-20T07:22:50.828Z,81.50
2017-12-20T07:23:50.757Z,79.10
2017-12-20T07:24:50.738Z,83.80
2017-12-20T07:25:50.718Z,80.20
2017-12-20T07:26:50.707Z,77.00
2017-12-20T07:27:50.678Z,84.50
2017-12-20T07:28:50.661Z,80.50
2017-12-20T07:29:50.638Z,73.20
2017-12-20T07:30:50.622Z,81.00
2017-12-20T07:31:50.598Z,78.40
2017-12-20T07:32:50.581Z,75.90
2017-12-20T07:33:50.558Z,71.70
2017-12-20T07:34:50.539Z,72.80
2017-12-20T07:35:50.527Z,71.00
2017-12-20T07:36:50.504Z,71.90
2017-12-20T07:37:50.481Z,69.60
2017-12-20T07:38:50.471Z,70.40
2017-12-20T07:39:50.445Z,71.30
2017-12-20T07:40:50.429Z,72.50
2017-12-20T07:41:50.410Z,69.10
2017-12-20T07:42:50.387Z,74.20
2017-12-20T07:43:50.371Z,73.50
2017-12-20T07:44:50.349Z,72.90
2017-12-20T07:45:50.328Z,74.40
2017-12-20T07:46:50.351Z,71.90
2017-12-20T07:47:50.291Z,69.80
2017-12-20T07:48:50.368Z,69.90
2017-12-20T07:49:50.243Z,71.40
2017-12-20T07:50:50.234Z,65.80
2017-12-20T07:51:50.208Z,71.30
2017-12-20T07:52:50.186Z,63.20
2017-12-20T07:53:50.170Z,72.70
2017-12-20T07:54:50.195Z,70.00
2017-12-20T07:55:50.131Z,67.70
2017-12-20T07:56:50.105Z,64.60
2017-12-20T07:57:50.086Z,65.70
2017-12-20T07:58:50.221Z,58.40
2017-12-20T07:59:50.048Z,65.20
2017-12-20T08:00:50.074Z,59.90
2017-12-20T08:01:50.009Z,65.90
2017-12-20T08:02:50.036Z,69.90
2017-12-20T08:03:49.971Z,63.60
2017-12-20T08:04:49.996Z,61.50
2017-12-20T08:05:49.928Z,63.40
2017-12-20T08:06:50.011Z,62.40
2017-12-20T08:07:49.886Z,63.40
2017-12-20T08:08:49.870Z,61.20
2017-12-20T08:09:49.847Z,60.20
2017-12-20T08:10:49.880Z,62.50
2017-12-20T08:11:49.807Z,71.60
2017-12-20T08:12:49.889Z,65.00
2017-12-20T08:13:49.770Z,64.30
2017-12-20T08:14:49.799Z,62.80
2017-12-20T08:15:49.732Z,61.90
2017-12-20T08:16:49.709Z,58.80
2017-12-20T08:17:49.688Z,59.30
2017-12-20T08:18:49.668Z,64.90
2017-12-20T08:19:49.648Z,63.80
2017-12-20T08:20:49.629Z,59.80
2017-12-20T08:21:49.608Z,57.60
2017-12-20T08:22:49.588Z,58.50
2017-12-20T08:23:49.568Z,56.30
2017-12-20T08:24:49.556Z,56.30
2017-12-20T08:25:49.530Z,59.20
2017-12-20T08:26:49.515Z,55.00
2017-12-20T08:27:49.494Z,58.00
2017-12-20T08:28:49.470Z,56.40
2017-12-20T08:29:49.452Z,58.10
2017-12-20T08:30:49.442Z,56.90
2017-12-20T08:31:49.414Z,60.60
2017-12-20T08:32:49.404Z,58.80
2017-12-20T08:33:49.374Z,63.00
2017-12-20T08:34:49.358Z,66.30
2017-12-20T08:35:49.336Z,58.60
2017-12-20T08:36:49.319Z,61.20
2017-12-20T08:37:49.296Z,62.50
2017-12-20T08:38:49.280Z,64.20
2017-12-20T08:39:49.268Z,63.90
2017-12-20T08:40:49.236Z,60.80
2017-12-20T08:41:49.220Z,61.80
2017-12-20T08:42:49.198Z,62.70
2017-12-20T08:43:49.176Z,62.40
2017-12-20T08:44:49.159Z,55.40
2017-12-20T08:45:49.142Z,61.20
2017-12-20T08:46:49.119Z,59.40
2017-12-20T08:47:49.099Z,59.30
2017-12-20T08:48:49.078Z,60.00
2017-12-20T08:49:49.060Z,64.70
2017-12-20T08:50:49.041Z,60.20
2017-12-20T08:51:49.018Z,58.90
2017-12-20T08:52:48.999Z,62.50
2017-12-20T08:53:48.979Z,59.30
2017-12-20T08:54:48.965Z,58.70
2017-12-20T08:55:48.941Z,57.50
2017-12-20T08:56:48.920Z,63.30
2017-12-20T08:57:48.902Z,53.50
2017-12-20T08:58:48.886Z,56.80
2017-12-20T08:59:48.863Z,58.90
2017-12-20T09:00:48.844Z,60.60
2017-12-20T09:01:48.822Z,57.10
2017-12-20T09:02:48.807Z,63.70
2017-12-20T09:03:48.791Z,61.30
2017-12-20T09:04:48.763Z,66.50
2017-12-20T09:05:48.743Z,67.00
2017-12-20T09:06:48.729Z,67.00
2017-12-20T09:07:48.706Z,63.80
2017-12-20T09:08:48.689Z,62.50
2017-12-20T09:09:48.670Z,61.90
2017-12-20T09:10:48.801Z,63.10
2017-12-20T09:11:48.632Z,66.90
2017-12-20T09:12:48.758Z,64.90
2017-12-20T09:13:48.588Z,62.00
2017-12-20T09:14:48.678Z,62.60
2017-12-20T09:15:48.547Z,61.20
2017-12-20T09:16:48.566Z,65.90
2017-12-20T09:17:48.517Z,67.20
2017-12-20T09:18:48.612Z,62.70
2017-12-20T09:19:48.472Z,58.30
2017-12-20T09:20:48.536Z,62.50
2017-12-20T09:21:48.441Z,65.20
2017-12-20T09:22:48.513Z,62.00
2017-12-20T09:23:48.393Z,64.40
2017-12-20T09:24:48.526Z,71.00
2017-12-20T09:25:48.358Z,63.90
2017-12-20T09:26:48.338Z,74.10
2017-12-20T09:27:48.314Z,76.90
2017-12-20T09:28:48.361Z,70.70
2017-12-20T09:29:48.280Z,69.90
2017-12-20T09:30:48.409Z,76.60
2017-12-20T09:31:48.242Z,68.30
2017-12-20T09:32:48.379Z,66.00
2017-12-20T09:33:48.211Z,70.00
2017-12-20T09:34:48.287Z,74.70
2017-12-20T09:35:48.158Z,73.60
2017-12-20T09:36:48.145Z,73.70
2017-12-20T09:37:48.138Z,69.00
2017-12-20T09:38:48.106Z,68.00
2017-12-20T09:39:48.094Z,69.30
2017-12-20T09:40:48.170Z,73.70
2017-12-20T09:41:48.042Z,79.60
2017-12-20T09:42:48.029Z,75.20
2017-12-20T09:43:48.010Z,74.80
2017-12-20T09:44:47.990Z,77.30
2017-12-20T09:45:47.970Z,77.80
2017-12-20T09:46:47.952Z,75.10
2017-12-20T09:47:47.934Z,74.10
2017-12-20T09:48:47.915Z,74.70
2017-12-20T09:49:47.891Z,67.30
2017-12-20T09:50:47.872Z,66.20
2017-12-20T09:51:47.860Z,77.70
2017-12-20T09:52:47.834Z,72.80
2017-12-20T09:53:47.820Z,69.50
2017-12-20T09:54:47.802Z,73.10
2017-12-20T09:55:47.770Z,75.10
2017-12-20T09:56:47.758Z,68.90
2017-12-20T09:57:47.732Z,67.90
2017-12-20T09:58:47.722Z,68.90
2017-12-20T09:59:47.697Z,72.80
2017-12-20T10:00:47.681Z,67.30
2017-12-20T10:01:47.657Z,67.60
2017-12-20T10:02:47.639Z,71.40
2017-12-20T10:03:47.623Z,65.90
2017-12-20T10:04:47.607Z,68.30
2017-12-20T10:05:47.580Z,71.90
2017-12-20T10:06:47.569Z,66.70
2017-12-20T10:07:47.542Z,69.00
2017-12-20T10:08:47.523Z,67.30
2017-12-20T10:09:47.507Z,66.30
2017-12-20T10:10:47.481Z,65.90
2017-12-20T10:11:47.466Z,67.50
2017-12-20T10:12:47.440Z,66.30
2017-12-20T10:13:47.420Z,67.70
2017-12-20T10:14:47.400Z,66.30
2017-12-20T10:15:47.391Z,62.60
2017-12-20T10:16:47.369Z,65.20
2017-12-20T10:17:47.346Z,66.00
2017-12-20T10:18:47.327Z,71.40
2017-12-20T10:19:47.303Z,63.40
2017-12-20T10:20:47.351Z,64.80
2017-12-20T10:21:47.269Z,64.40
2017-12-20T10:22:47.249Z,61.10
2017-12-20T10:23:47.231Z,68.20
2017-12-20T10:24:47.210Z,62.90
2017-12-20T10:25:47.189Z,65.40
2017-12-20T10:26:47.169Z,66.40
2017-12-20T10:27:47.146Z,67.70
2017-12-20T10:28:47.136Z,65.30
2017-12-20T10:29:47.111Z,66.90
2017-12-20T10:30:47.099Z,65.70
2017-12-20T10:31:47.074Z,64.80
2017-12-20T10:32:47.201Z,68.30
2017-12-20T10:33:47.030Z,76.60
2017-12-20T10:34:47.020Z,69.40
2017-12-20T10:35:46.992Z,65.50
2017-12-20T10:36:47.070Z,71.40
2017-12-20T10:37:46.951Z,71.00
2017-12-20T10:38:46.953Z,70.40
2017-12-20T10:39:46.955Z,71.80
2017-12-20T10:40:46.998Z,65.40
2017-12-20T10:41:46.875Z,66.50
2017-12-20T10:42:46.858Z,68.50
2017-12-20T10:43:46.847Z,73.50
2017-12-20T10:44:46.820Z,69.70
2017-12-20T10:45:46.803Z,69.40
2017-12-20T10:46:46.781Z,75.10
2017-12-20T10:47:46.773Z,69.20
2017-12-20T10:48:46.739Z,69.30
2017-12-20T10:49:46.719Z,63.40
2017-12-20T10:50:46.701Z,66.80
2017-12-20T10:51:46.682Z,61.60
2017-12-20T10:52:46.670Z,58.40
2017-12-20T10:53:46.645Z,55.90
2017-12-20T10:54:46.622Z,53.20
2017-12-20T10:55:46.600Z,54.10
2017-12-20T10:56:46.589Z,54.70
2017-12-20T10:57:46.564Z,52.40
2017-12-20T10:58:46.553Z,49.40
2017-12-20T10:59:46.530Z,51.30
2017-12-20T11:00:46.509Z,54.60
2017-12-20T11:01:46.493Z,50.00
2017-12-20T11:02:46.483Z,52.70
2017-12-20T11:03:46.459Z,52.60
2017-12-20T11:04:46.425Z,56.60
2017-12-20T11:05:46.411Z,55.20
2017-12-20T11:06:46.391Z,50.60
2017-12-20T11:07:46.370Z,55.20
2017-12-20T11:08:46.353Z,56.30
2017-12-20T11:09:46.329Z,52.20
2017-12-20T11:10:46.317Z,49.80
2017-12-20T11:11:46.289Z,48.40
2017-12-20T11:12:46.279Z,50.50
2017-12-20T11:13:46.263Z,52.40
2017-12-20T11:14:46.233Z,57.80
2017-12-20T11:15:46.214Z,51.50
2017-12-20T11:16:46.199Z,51.00
2017-12-20T11:17:46.179Z,53.30
2017-12-20T11:18:46.183Z,55.60
2017-12-20T11:19:46.139Z,53.60
2017-12-20T11:20:46.119Z,55.00
2017-12-20T11:21:46.110Z,51.90
2017-12-20T11:22:46.090Z,46.60
2017-12-20T11:23:46.065Z,48.20
2017-12-20T11:24:46.047Z,50.80
2017-12-20T11:25:46.026Z,54.60
2017-12-20T11:26:46.009Z,50.20
2017-12-20T11:27:45.990Z,50.30
2017-12-20T11:28:45.965Z,54.40
2017-12-20T11:29:45.952Z,49.00
2017-12-20T11:30:45.986Z,49.20
2017-12-20T11:31:45.920Z,51.40
2017-12-20T11:32:45.901Z,55.50
2017-12-20T11:33:45.895Z,54.20
2017-12-20T11:34:45.920Z,52.60
2017-12-20T11:35:45.840Z,49.10
2017-12-20T11:36:45.821Z,47.30
2017-12-20T11:37:45.801Z,54.40
2017-12-20T11:38:45.776Z,53.60
2017-12-20T11:39:45.760Z,54.10
2017-12-20T11:40:45.754Z,53.60
2017-12-20T11:41:45.730Z,53.00
2017-12-20T11:42:45.711Z,53.60
2017-12-20T11:43:45.692Z,53.10
2017-12-20T11:44:45.671Z,49.70
2017-12-20T11:45:45.652Z,51.50
2017-12-20T11:46:45.642Z,52.10
2017-12-20T11:47:45.609Z,53.00
2017-12-20T11:48:45.590Z,53.20
2017-12-20T11:49:45.574Z,51.40
2017-12-20T11:50:45.562Z,50.60
2017-12-20T11:51:45.541Z,54.50
2017-12-20T11:52:45.521Z,56.20
2017-12-20T11:53:45.497Z,56.40
2017-12-20T11:54:45.482Z,53.60
2017-12-20T11:55:45.458Z,57.20
2017-12-20T11:56:45.523Z,56.20
2017-12-20T11:57:45.431Z,56.00
2017-12-20T11:58:45.408Z,55.60
2017-12-20T11:59:45.393Z,56.70
2017-12-20T12:00:45.502Z,54.00
2017-12-20T12:01:45.351Z,56.40
2017-12-20T12:02:45.343Z,60.90
2017-12-20T12:03:45.306Z,52.80
2017-12-20T12:04:45.290Z,58.30
2017-12-20T12:05:45.277Z,64.10
2017-12-20T12:06:45.251Z,60.80
2017-12-20T12:07:45.241Z,52.90
2017-12-20T12:08:45.220Z,58.00
2017-12-20T12:09:45.190Z,56.60
2017-12-20T12:10:45.230Z,56.80
2017-12-20T12:11:45.164Z,54.90
2017-12-20T12:12:45.139Z,54.20
2017-12-20T12:13:45.123Z,52.20
2017-12-20T12:14:45.103Z,55.90
2017-12-20T12:15:45.082Z,57.20
2017-12-20T12:16:45.062Z,60.30
2017-12-20T12:17:45.044Z,58.20
2017-12-20T12:18:45.031Z,58.90
2017-12-20T12:19:45.001Z,57.00
2017-12-20T12:20:44.987Z,57.20
2017-12-20T12:21:44.970Z,62.40
2017-12-20T12:22:45.005Z,62.00
2017-12-20T12:23:44.928Z,58.60
2017-12-20T12:24:44.929Z,58.10
2017-12-20T12:25:44.886Z,56.00
2017-12-20T12:26:44.874Z,61.50
2017-12-20T12:27:44.848Z,55.40
2017-12-20T12:28:44.890Z,59.90
2017-12-20T12:29:44.810Z,62.90
2017-12-20T12:30:44.789Z,57.00
2017-12-20T12:31:44.780Z,55.50
2017-12-20T12:32:44.762Z,52.70
2017-12-20T12:33:44.735Z,57.70
2017-12-20T12:34:44.716Z,59.00
2017-12-20T12:35:44.693Z,53.90
2017-12-20T12:36:44.681Z,57.40
2017-12-20T12:37:44.668Z,58.30
2017-12-20T12:38:44.638Z,56.90
2017-12-20T12:39:44.618Z,55.30
2017-12-20T12:40:44.608Z,56.80
2017-12-20T12:41:44.579Z,56.70
2017-12-20T12:42:44.564Z,59.10
2017-12-20T12:43:44.544Z,61.60
2017-12-20T12:44:44.534Z,57.20
2017-12-20T12:45:44.503Z,59.60
2017-12-20T12:46:44.494Z,55.10
2017-12-20T12:47:44.481Z,63.50
2017-12-20T12:48:44.458Z,64.00
2017-12-20T12:49:44.432Z,63.80
2017-12-20T12:50:44.410Z,59.70
2017-12-20T12:51:44.391Z,58.20
2017-12-20T12:52:44.375Z,62.50